sensor_id;sensor_type;location;lat;lon;timestamp;temperature;humidity
24518;DHT22;12678;51.336;12.406;2023-02-01T00:02:06;5.20;99.90
24518;DHT22;12678;51.336;12.406;2023-02-01T00:04:32;5.20;99.90
24518;DHT22;12678;51.336;12.406;2023-02-01T00:06:58;5.30;99.90
24518;DHT22;12678;51.336;12.406;2023-02-01T00:09:23;5.30;99.90
24518;DHT22;12678;51.336;12.406;2023-02-01T00:11:49;5.20;99.90
24518;DHT22;12678;51.336;12.406;2023-02-01T00:14:14;5.20;99.90
24518;DHT22;12678;51.336;12.406;2023-02-01T00:16:40;5.20;99.90
24518;DHT22;12678;51.336;12.406;2023-02-01T00:19:12;5.20;99.90
24518;DHT22;12678;51.336;12.406;2023-02-01T00:21:38;5.20;99.90
24518;DHT22;12678;51.336;12.406;2023-02-01T00:24:04;5.20;99.90
24518;DHT22;12678;51.336;12.406;2023-02-01T00:26:35;5.20;99.90
24518;DHT22;12678;51.336;12.406;2023-02-01T00:29:05;5.20;99.90
24518;DHT22;12678;51.336;12.406;2023-02-01T00:31:31;5.20;99.90
24518;DHT22;12678;51.336;12.406;2023-02-01T00:33:57;5.20;99.90
24518;DHT22;12678;51.336;12.406;2023-02-01T00:36:22;5.20;99.90
24518;DHT22;12678;51.336;12.406;2023-02-01T00:38:48;5.20;99.90
24518;DHT22;12678;51.336;12.406;2023-02-01T00:41:16;5.20;99.90
24518;DHT22;12678;51.336;12.406;2023-02-01T00:43:43;5.30;99.90
24518;DHT22;12678;51.336;12.406;2023-02-01T00:46:09;5.30;99.90
24518;DHT22;12678;51.336;12.406;2023-02-01T00:48:36;5.30;99.90
24518;DHT22;12678;51.336;12.406;2023-02-01T00:51:04;5.30;99.90
24518;DHT22;12678;51.336;12.406;2023-02-01T00:53:31;5.30;99.90
24518;DHT22;12678;51.336;12.406;2023-02-01T00:55:56;5.40;99.90
24518;DHT22;12678;51.336;12.406;2023-02-01T00:58:23;5.40;99.90
24518;DHT22;12678;51.336;12.406;2023-02-01T01:01:11;5.40;99.90
24518;DHT22;12678;51.336;12.406;2023-02-01T01:03:43;5.40;99.90
24518;DHT22;12678;51.336;12.406;2023-02-01T01:06:15;5.40;99.90
24518;DHT22;12678;51.336;12.406;2023-02-01T01:08:41;5.40;99.90
24518;DHT22;12678;51.336;12.406;2023-02-01T01:11:13;5.40;99.90
24518;DHT22;12678;51.336;12.406;2023-02-01T01:13:39;5.40;99.90
24518;DHT22;12678;51.336;12.406;2023-02-01T01:16:07;5.40;99.90
24518;DHT22;12678;51.336;12.406;2023-02-01T01:18:34;5.40;99.90
24518;DHT22;12678;51.336;12.406;2023-02-01T01:21:01;5.40;99.90
24518;DHT22;12678;51.336;12.406;2023-02-01T01:23:27;5.40;99.90
24518;DHT22;12678;51.336;12.406;2023-02-01T01:25:53;5.30;99.90
24518;DHT22;12678;51.336;12.406;2023-02-01T01:28:19;5.30;99.90
24518;DHT22;12678;51.336;12.406;2023-02-01T01:30:45;5.30;99.90
24518;DHT22;12678;51.336;12.406;2023-02-01T01:33:10;5.30;99.90
24518;DHT22;12678;51.336;12.406;2023-02-01T01:35:36;5.30;99.90
24518;DHT22;12678;51.336;12.406;2023-02-01T01:38:02;5.30;99.90
24518;DHT22;12678;51.336;12.406;2023-02-01T01:40:29;5.30;99.90
24518;DHT22;12678;51.336;12.406;2023-02-01T01:42:55;5.30;99.90
24518;DHT22;12678;51.336;12.406;2023-02-01T01:45:25;5.30;99.90
24518;DHT22;12678;51.336;12.406;2023-02-01T01:47:54;5.20;99.90
24518;DHT22;12678;51.336;12.406;2023-02-01T01:50:33;5.20;99.90
24518;DHT22;12678;51.336;12.406;2023-02-01T01:53:03;5.20;99.90
24518;DHT22;12678;51.336;12.406;2023-02-01T01:55:32;5.20;99.90
24518;DHT22;12678;51.336;12.406;2023-02-01T01:58:05;5.20;99.90
24518;DHT22;12678;51.336;12.406;2023-02-01T02:00:32;5.20;99.90
24518;DHT22;12678;51.336;12.406;2023-02-01T02:03:48;5.10;99.90
24518;DHT22;12678;51.336;12.406;2023-02-01T02:05:57;5.10;99.90
24518;DHT22;12678;51.336;12.406;2023-02-01T02:08:26;5.10;99.90
24518;DHT22;12678;51.336;12.406;2023-02-01T02:10:52;5.10;99.90
24518;DHT22;12678;51.336;12.406;2023-02-01T02:13:40;5.10;99.90
24518;DHT22;12678;51.336;12.406;2023-02-01T02:16:14;5.10;99.90
24518;DHT22;12678;51.336;12.406;2023-02-01T02:18:45;5.10;99.90
24518;DHT22;12678;51.336;12.406;2023-02-01T02:36:14;5.20;99.90
24518;DHT22;12678;51.336;12.406;2023-02-01T02:39:05;5.30;99.90
24518;DHT22;12678;51.336;12.406;2023-02-01T02:44:41;5.30;99.90
24518;DHT22;12678;51.336;12.406;2023-02-01T02:47:55;5.30;99.90
24518;DHT22;12678;51.336;12.406;2023-02-01T02:50:30;5.40;99.90
24518;DHT22;12678;51.336;12.406;2023-02-01T02:53:21;5.40;99.90
24518;DHT22;12678;51.336;12.406;2023-02-01T02:56:08;5.50;99.90
24518;DHT22;12678;51.336;12.406;2023-02-01T02:58:54;5.50;99.90
24518;DHT22;12678;51.336;12.406;2023-02-01T03:01:40;5.50;99.90
24518;DHT22;12678;51.336;12.406;2023-02-01T03:04:24;5.50;99.90
24518;DHT22;12678;51.336;12.406;2023-02-01T03:06:52;5.40;99.90
24518;DHT22;12678;51.336;12.406;2023-02-01T03:09:31;5.40;99.90
24518;DHT22;12678;51.336;12.406;2023-02-01T03:12:03;5.40;99.90
24518;DHT22;12678;51.336;12.406;2023-02-01T03:14:52;5.40;99.90
24518;DHT22;12678;51.336;12.406;2023-02-01T03:17:24;5.40;99.90
24518;DHT22;12678;51.336;12.406;2023-02-01T03:19:53;5.40;99.90
24518;DHT22;12678;51.336;12.406;2023-02-01T03:22:24;5.40;99.90
24518;DHT22;12678;51.336;12.406;2023-02-01T03:24:58;5.40;99.90
24518;DHT22;12678;51.336;12.406;2023-02-01T03:27:30;5.40;99.90
24518;DHT22;12678;51.336;12.406;2023-02-01T03:32:31;5.40;99.90
24518;DHT22;12678;51.336;12.406;2023-02-01T03:35:19;5.50;99.90
24518;DHT22;12678;51.336;12.406;2023-02-01T03:37:46;5.50;99.90
24518;DHT22;12678;51.336;12.406;2023-02-01T03:40:15;5.50;99.90
24518;DHT22;12678;51.336;12.406;2023-02-01T03:42:48;5.50;99.90
24518;DHT22;12678;51.336;12.406;2023-02-01T03:45:35;5.50;99.90
24518;DHT22;12678;51.336;12.406;2023-02-01T03:48:04;5.60;99.90
24518;DHT22;12678;51.336;12.406;2023-02-01T03:50:31;5.60;99.90
24518;DHT22;12678;51.336;12.406;2023-02-01T03:53:09;5.60;99.90
24518;DHT22;12678;51.336;12.406;2023-02-01T03:55:36;5.60;99.90
24518;DHT22;12678;51.336;12.406;2023-02-01T03:58:10;5.60;99.90
24518;DHT22;12678;51.336;12.406;2023-02-01T04:00:38;5.60;99.90
24518;DHT22;12678;51.336;12.406;2023-02-01T04:03:05;5.70;99.90
24518;DHT22;12678;51.336;12.406;2023-02-01T04:05:32;5.70;99.90
24518;DHT22;12678;51.336;12.406;2023-02-01T04:07:58;5.70;99.90
24518;DHT22;12678;51.336;12.406;2023-02-01T04:10:24;5.70;99.90
24518;DHT22;12678;51.336;12.406;2023-02-01T04:12:50;5.70;99.90
24518;DHT22;12678;51.336;12.406;2023-02-01T04:15:15;5.70;99.90
24518;DHT22;12678;51.336;12.406;2023-02-01T04:17:41;5.70;99.90
24518;DHT22;12678;51.336;12.406;2023-02-01T04:20:07;5.70;99.90
24518;DHT22;12678;51.336;12.406;2023-02-01T04:22:34;5.70;99.90
24518;DHT22;12678;51.336;12.406;2023-02-01T04:25:00;5.70;99.90
24518;DHT22;12678;51.336;12.406;2023-02-01T04:27:26;5.70;99.90
24518;DHT22;12678;51.336;12.406;2023-02-01T04:29:51;5.70;99.90
24518;DHT22;12678;51.336;12.406;2023-02-01T04:32:18;5.60;99.90
24518;DHT22;12678;51.336;12.406;2023-02-01T04:34:45;5.60;99.90
24518;DHT22;12678;51.336;12.406;2023-02-01T04:37:11;5.70;99.90
24518;DHT22;12678;51.336;12.406;2023-02-01T04:39:36;5.60;99.90
24518;DHT22;12678;51.336;12.406;2023-02-01T04:42:03;5.50;99.90
24518;DHT22;12678;51.336;12.406;2023-02-01T04:44:29;5.60;99.90
24518;DHT22;12678;51.336;12.406;2023-02-01T04:46:54;5.70;99.90
24518;DHT22;12678;51.336;12.406;2023-02-01T04:49:20;5.80;99.90
24518;DHT22;12678;51.336;12.406;2023-02-01T04:51:46;5.80;99.90
24518;DHT22;12678;51.336;12.406;2023-02-01T04:54:12;5.90;99.90
24518;DHT22;12678;51.336;12.406;2023-02-01T04:56:38;5.90;99.90
24518;DHT22;12678;51.336;12.406;2023-02-01T04:59:04;6.00;99.90
24518;DHT22;12678;51.336;12.406;2023-02-01T05:01:30;6.00;99.90
24518;DHT22;12678;51.336;12.406;2023-02-01T05:03:56;5.90;99.90
24518;DHT22;12678;51.336;12.406;2023-02-01T05:06:22;5.90;99.90
24518;DHT22;12678;51.336;12.406;2023-02-01T05:08:48;5.80;99.90
24518;DHT22;12678;51.336;12.406;2023-02-01T05:11:14;5.90;99.90
24518;DHT22;12678;51.336;12.406;2023-02-01T05:13:59;5.80;99.90
24518;DHT22;12678;51.336;12.406;2023-02-01T05:16:25;5.80;99.90
24518;DHT22;12678;51.336;12.406;2023-02-01T05:18:51;5.80;99.90
24518;DHT22;12678;51.336;12.406;2023-02-01T05:21:17;5.80;99.90
24518;DHT22;12678;51.336;12.406;2023-02-01T05:23:42;5.70;99.90
24518;DHT22;12678;51.336;12.406;2023-02-01T05:26:26;5.80;99.90
24518;DHT22;12678;51.336;12.406;2023-02-01T05:28:52;5.80;99.90
24518;DHT22;12678;51.336;12.406;2023-02-01T05:31:18;5.80;99.90
24518;DHT22;12678;51.336;12.406;2023-02-01T05:33:43;5.80;99.90
24518;DHT22;12678;51.336;12.406;2023-02-01T05:36:09;5.70;99.90
24518;DHT22;12678;51.336;12.406;2023-02-01T05:38:34;5.60;99.90
24518;DHT22;12678;51.336;12.406;2023-02-01T05:41:00;5.70;99.90
24518;DHT22;12678;51.336;12.406;2023-02-01T05:43:26;5.70;99.90
24518;DHT22;12678;51.336;12.406;2023-02-01T05:45:52;5.70;99.90
24518;DHT22;12678;51.336;12.406;2023-02-01T05:48:18;5.70;99.90
24518;DHT22;12678;51.336;12.406;2023-02-01T05:50:44;5.60;99.90
24518;DHT22;12678;51.336;12.406;2023-02-01T05:53:10;5.50;99.90
24518;DHT22;12678;51.336;12.406;2023-02-01T05:55:36;5.50;99.90
24518;DHT22;12678;51.336;12.406;2023-02-01T05:58:02;5.40;99.90
24518;DHT22;12678;51.336;12.406;2023-02-01T06:00:27;5.50;99.90
24518;DHT22;12678;51.336;12.406;2023-02-01T06:02:53;5.40;99.90
24518;DHT22;12678;51.336;12.406;2023-02-01T06:05:19;5.40;99.90
24518;DHT22;12678;51.336;12.406;2023-02-01T06:07:44;5.50;99.90
24518;DHT22;12678;51.336;12.406;2023-02-01T06:10:10;5.50;99.90
24518;DHT22;12678;51.336;12.406;2023-02-01T06:12:36;5.60;99.90
24518;DHT22;12678;51.336;12.406;2023-02-01T06:15:02;5.60;99.90
24518;DHT22;12678;51.336;12.406;2023-02-01T06:17:27;5.60;99.90
24518;DHT22;12678;51.336;12.406;2023-02-01T06:19:53;5.60;99.90
24518;DHT22;12678;51.336;12.406;2023-02-01T06:22:18;5.60;99.90
24518;DHT22;12678;51.336;12.406;2023-02-01T06:24:44;5.60;99.90
24518;DHT22;12678;51.336;12.406;2023-02-01T06:27:10;5.60;99.90
24518;DHT22;12678;51.336;12.406;2023-02-01T06:29:38;5.60;99.90
24518;DHT22;12678;51.336;12.406;2023-02-01T06:32:04;5.60;99.90
24518;DHT22;12678;51.336;12.406;2023-02-01T06:34:30;5.50;99.90
24518;DHT22;12678;51.336;12.406;2023-02-01T06:36:55;5.60;99.90
24518;DHT22;12678;51.336;12.406;2023-02-01T06:39:21;5.60;99.90
24518;DHT22;12678;51.336;12.406;2023-02-01T06:41:48;5.50;99.90
24518;DHT22;12678;51.336;12.406;2023-02-01T06:44:14;5.50;99.90
24518;DHT22;12678;51.336;12.406;2023-02-01T06:46:39;5.50;99.90
24518;DHT22;12678;51.336;12.406;2023-02-01T06:49:05;5.60;99.90
24518;DHT22;12678;51.336;12.406;2023-02-01T06:51:31;5.60;99.90
24518;DHT22;12678;51.336;12.406;2023-02-01T06:53:56;5.70;99.90
24518;DHT22;12678;51.336;12.406;2023-02-01T06:56:23;5.70;99.90
24518;DHT22;12678;51.336;12.406;2023-02-01T06:58:49;5.70;99.90
24518;DHT22;12678;51.336;12.406;2023-02-01T07:01:15;5.70;99.90
24518;DHT22;12678;51.336;12.406;2023-02-01T07:03:41;5.70;99.90
24518;DHT22;12678;51.336;12.406;2023-02-01T07:06:08;5.70;99.90
24518;DHT22;12678;51.336;12.406;2023-02-01T07:08:37;5.70;99.90
24518;DHT22;12678;51.336;12.406;2023-02-01T07:11:08;5.70;99.90
24518;DHT22;12678;51.336;12.406;2023-02-01T07:13:34;5.70;99.90
24518;DHT22;12678;51.336;12.406;2023-02-01T07:16:01;5.80;99.90
24518;DHT22;12678;51.336;12.406;2023-02-01T07:18:28;5.80;99.90
24518;DHT22;12678;51.336;12.406;2023-02-01T07:20:54;5.80;99.90
24518;DHT22;12678;51.336;12.406;2023-02-01T07:23:21;5.80;99.90
24518;DHT22;12678;51.336;12.406;2023-02-01T07:25:47;5.80;99.90
24518;DHT22;12678;51.336;12.406;2023-02-01T07:28:13;5.80;99.90
24518;DHT22;12678;51.336;12.406;2023-02-01T07:30:39;5.90;99.90
24518;DHT22;12678;51.336;12.406;2023-02-01T07:33:06;5.90;99.90
24518;DHT22;12678;51.336;12.406;2023-02-01T07:35:31;6.00;99.90
24518;DHT22;12678;51.336;12.406;2023-02-01T07:37:57;6.00;99.90
24518;DHT22;12678;51.336;12.406;2023-02-01T07:40:23;5.90;99.90
24518;DHT22;12678;51.336;12.406;2023-02-01T07:42:54;6.00;99.90
24518;DHT22;12678;51.336;12.406;2023-02-01T07:45:21;6.00;99.90
24518;DHT22;12678;51.336;12.406;2023-02-01T07:47:46;6.00;99.90
24518;DHT22;12678;51.336;12.406;2023-02-01T07:50:12;6.10;99.90
24518;DHT22;12678;51.336;12.406;2023-02-01T07:52:37;6.10;99.90
24518;DHT22;12678;51.336;12.406;2023-02-01T07:55:03;6.20;99.90
24518;DHT22;12678;51.336;12.406;2023-02-01T07:57:29;6.20;99.90
24518;DHT22;12678;51.336;12.406;2023-02-01T07:59:55;6.20;99.90
24518;DHT22;12678;51.336;12.406;2023-02-01T08:02:41;6.20;99.90
24518;DHT22;12678;51.336;12.406;2023-02-01T08:05:07;6.20;99.90
24518;DHT22;12678;51.336;12.406;2023-02-01T08:07:32;6.30;99.90
24518;DHT22;12678;51.336;12.406;2023-02-01T08:09:58;6.30;99.90
24518;DHT22;12678;51.336;12.406;2023-02-01T08:12:25;6.30;99.90
24518;DHT22;12678;51.336;12.406;2023-02-01T08:14:53;6.40;99.90
24518;DHT22;12678;51.336;12.406;2023-02-01T08:17:19;6.30;99.90
24518;DHT22;12678;51.336;12.406;2023-02-01T08:19:45;6.30;99.90
24518;DHT22;12678;51.336;12.406;2023-02-01T08:22:10;6.30;99.90
24518;DHT22;12678;51.336;12.406;2023-02-01T08:24:36;6.30;99.90
24518;DHT22;12678;51.336;12.406;2023-02-01T08:27:05;6.30;99.90
24518;DHT22;12678;51.336;12.406;2023-02-01T08:29:31;6.30;99.90
24518;DHT22;12678;51.336;12.406;2023-02-01T08:31:56;6.30;99.90
24518;DHT22;12678;51.336;12.406;2023-02-01T08:34:22;6.30;99.90
24518;DHT22;12678;51.336;12.406;2023-02-01T08:36:48;6.30;99.90
24518;DHT22;12678;51.336;12.406;2023-02-01T08:39:13;6.30;99.90
24518;DHT22;12678;51.336;12.406;2023-02-01T08:41:39;6.20;99.90
24518;DHT22;12678;51.336;12.406;2023-02-01T08:44:07;6.20;99.90
24518;DHT22;12678;51.336;12.406;2023-02-01T08:46:33;6.10;99.90
24518;DHT22;12678;51.336;12.406;2023-02-01T08:48:59;6.10;99.90
24518;DHT22;12678;51.336;12.406;2023-02-01T08:51:25;6.00;99.90
24518;DHT22;12678;51.336;12.406;2023-02-01T08:53:51;5.90;99.90
24518;DHT22;12678;51.336;12.406;2023-02-01T08:56:18;5.90;99.90
24518;DHT22;12678;51.336;12.406;2023-02-01T08:58:43;5.90;99.90
24518;DHT22;12678;51.336;12.406;2023-02-01T09:01:12;5.80;99.90
24518;DHT22;12678;51.336;12.406;2023-02-01T09:03:38;5.70;99.90
24518;DHT22;12678;51.336;12.406;2023-02-01T09:06:06;5.60;99.90
24518;DHT22;12678;51.336;12.406;2023-02-01T09:08:33;5.60;99.90
24518;DHT22;12678;51.336;12.406;2023-02-01T09:11:00;5.60;99.90
24518;DHT22;12678;51.336;12.406;2023-02-01T09:13:26;5.60;99.90
24518;DHT22;12678;51.336;12.406;2023-02-01T09:15:52;5.60;99.90
24518;DHT22;12678;51.336;12.406;2023-02-01T09:18:17;5.70;99.90
24518;DHT22;12678;51.336;12.406;2023-02-01T09:20:43;5.60;99.90
24518;DHT22;12678;51.336;12.406;2023-02-01T09:23:08;5.70;99.90
24518;DHT22;12678;51.336;12.406;2023-02-01T09:25:36;5.60;99.90
24518;DHT22;12678;51.336;12.406;2023-02-01T09:28:02;5.70;99.90
24518;DHT22;12678;51.336;12.406;2023-02-01T09:30:29;5.70;99.90
24518;DHT22;12678;51.336;12.406;2023-02-01T09:32:54;5.70;99.90
24518;DHT22;12678;51.336;12.406;2023-02-01T09:35:20;5.70;99.90
24518;DHT22;12678;51.336;12.406;2023-02-01T09:37:45;5.70;99.90
24518;DHT22;12678;51.336;12.406;2023-02-01T09:40:15;5.80;99.90
24518;DHT22;12678;51.336;12.406;2023-02-01T09:48:16;5.90;99.90
24518;DHT22;12678;51.336;12.406;2023-02-01T09:50:48;5.90;99.90
24518;DHT22;12678;51.336;12.406;2023-02-01T09:53:32;6.00;99.90
24518;DHT22;12678;51.336;12.406;2023-02-01T09:56:09;6.10;99.90
24518;DHT22;12678;51.336;12.406;2023-02-01T09:58:49;6.20;99.90
24518;DHT22;12678;51.336;12.406;2023-02-01T10:01:20;6.30;99.90
24518;DHT22;12678;51.336;12.406;2023-02-01T10:03:48;6.40;99.90
24518;DHT22;12678;51.336;12.406;2023-02-01T10:11:47;6.60;99.90
24518;DHT22;12678;51.336;12.406;2023-02-01T10:22:46;6.80;99.90
24518;DHT22;12678;51.336;12.406;2023-02-01T10:27:47;6.80;99.90
24518;DHT22;12678;51.336;12.406;2023-02-01T10:32:43;6.90;99.90
24518;DHT22;12678;51.336;12.406;2023-02-01T10:35:15;6.90;99.90
24518;DHT22;12678;51.336;12.406;2023-02-01T10:37:42;6.90;99.90
24518;DHT22;12678;51.336;12.406;2023-02-01T10:40:18;7.00;99.90
24518;DHT22;12678;51.336;12.406;2023-02-01T10:42:47;7.00;99.90
24518;DHT22;12678;51.336;12.406;2023-02-01T10:45:21;7.10;99.90
24518;DHT22;12678;51.336;12.406;2023-02-01T10:47:49;7.20;99.90
24518;DHT22;12678;51.336;12.406;2023-02-01T10:50:38;7.20;99.90
24518;DHT22;12678;51.336;12.406;2023-02-01T10:55:55;7.30;99.90
24518;DHT22;12678;51.336;12.406;2023-02-01T10:58:29;7.30;99.90
24518;DHT22;12678;51.336;12.406;2023-02-01T11:00:58;7.40;99.90
24518;DHT22;12678;51.336;12.406;2023-02-01T11:04:01;7.40;99.90
24518;DHT22;12678;51.336;12.406;2023-02-01T11:06:36;7.40;99.90
24518;DHT22;12678;51.336;12.406;2023-02-01T11:09:10;7.50;99.90
24518;DHT22;12678;51.336;12.406;2023-02-01T11:14:19;7.60;99.90
24518;DHT22;12678;51.336;12.406;2023-02-01T11:16:52;7.70;99.90
24518;DHT22;12678;51.336;12.406;2023-02-01T11:19:18;7.80;99.90
24518;DHT22;12678;51.336;12.406;2023-02-01T11:21:44;7.80;99.90
24518;DHT22;12678;51.336;12.406;2023-02-01T11:24:34;7.90;99.90
24518;DHT22;12678;51.336;12.406;2023-02-01T11:27:03;7.90;99.90
24518;DHT22;12678;51.336;12.406;2023-02-01T11:29:35;7.90;99.90
24518;DHT22;12678;51.336;12.406;2023-02-01T11:32:03;7.80;99.90
24518;DHT22;12678;51.336;12.406;2023-02-01T11:34:45;7.80;99.90
24518;DHT22;12678;51.336;12.406;2023-02-01T11:37:19;7.90;99.90
24518;DHT22;12678;51.336;12.406;2023-02-01T11:39:57;7.90;99.90
24518;DHT22;12678;51.336;12.406;2023-02-01T11:42:24;8.00;99.90
24518;DHT22;12678;51.336;12.406;2023-02-01T11:44:50;8.10;99.90
24518;DHT22;12678;51.336;12.406;2023-02-01T11:49:45;8.10;99.90
24518;DHT22;12678;51.336;12.406;2023-02-01T12:00:42;8.20;99.90
24518;DHT22;12678;51.336;12.406;2023-02-01T12:03:25;8.30;99.90
24518;DHT22;12678;51.336;12.406;2023-02-01T12:05:59;8.20;99.90
24518;DHT22;12678;51.336;12.406;2023-02-01T12:31:09;8.20;99.90
24518;DHT22;12678;51.336;12.406;2023-02-01T12:41:56;8.30;99.90
24518;DHT22;12678;51.336;12.406;2023-02-01T12:44:29;8.30;99.90
24518;DHT22;12678;51.336;12.406;2023-02-01T12:50:00;8.30;99.90
24518;DHT22;12678;51.336;12.406;2023-02-01T12:52:40;8.40;99.90
24518;DHT22;12678;51.336;12.406;2023-02-01T13:00:48;8.30;99.90
24518;DHT22;12678;51.336;12.406;2023-02-01T13:03:54;8.20;99.90
24518;DHT22;12678;51.336;12.406;2023-02-01T13:06:24;8.20;99.90
24518;DHT22;12678;51.336;12.406;2023-02-01T13:09:04;8.30;99.90
24518;DHT22;12678;51.336;12.406;2023-02-01T13:11:37;8.30;99.90
24518;DHT22;12678;51.336;12.406;2023-02-01T13:16:50;8.20;99.90
24518;DHT22;12678;51.336;12.406;2023-02-01T13:21:58;8.20;99.90
24518;DHT22;12678;51.336;12.406;2023-02-01T13:24:37;8.20;99.90
24518;DHT22;12678;51.336;12.406;2023-02-01T13:27:05;8.10;99.90
24518;DHT22;12678;51.336;12.406;2023-02-01T13:29:32;8.10;99.90
24518;DHT22;12678;51.336;12.406;2023-02-01T13:42:52;8.00;99.90
24518;DHT22;12678;51.336;12.406;2023-02-01T13:45:30;8.00;99.90
24518;DHT22;12678;51.336;12.406;2023-02-01T13:47:59;8.00;99.90
24518;DHT22;12678;51.336;12.406;2023-02-01T13:50:36;8.00;99.90
24518;DHT22;12678;51.336;12.406;2023-02-01T13:53:16;8.00;99.90
24518;DHT22;12678;51.336;12.406;2023-02-01T13:55:49;8.10;99.90
24518;DHT22;12678;51.336;12.406;2023-02-01T13:58:22;8.10;99.90
24518;DHT22;12678;51.336;12.406;2023-02-01T14:03:44;8.10;99.90
24518;DHT22;12678;51.336;12.406;2023-02-01T14:06:36;8.00;99.90
24518;DHT22;12678;51.336;12.406;2023-02-01T14:11:50;7.90;99.90
24518;DHT22;12678;51.336;12.406;2023-02-01T14:16:43;7.90;99.90
24518;DHT22;12678;51.336;12.406;2023-02-01T14:24:32;7.90;99.90
24518;DHT22;12678;51.336;12.406;2023-02-01T14:27:15;7.90;99.90
24518;DHT22;12678;51.336;12.406;2023-02-01T14:29:50;7.80;99.90
24518;DHT22;12678;51.336;12.406;2023-02-01T14:32:22;7.80;99.90
24518;DHT22;12678;51.336;12.406;2023-02-01T14:34:56;7.70;99.90
24518;DHT22;12678;51.336;12.406;2023-02-01T14:55:55;7.90;99.90
24518;DHT22;12678;51.336;12.406;2023-02-01T15:01:25;7.70;99.90
24518;DHT22;12678;51.336;12.406;2023-02-01T15:04:12;7.70;99.90
24518;DHT22;12678;51.336;12.406;2023-02-01T15:09:33;7.70;99.90
24518;DHT22;12678;51.336;12.406;2023-02-01T15:12:05;7.60;99.90
24518;DHT22;12678;51.336;12.406;2023-02-01T15:14:37;7.70;99.90
24518;DHT22;12678;51.336;12.406;2023-02-01T15:17:20;7.60;99.90
24518;DHT22;12678;51.336;12.406;2023-02-01T15:19:52;7.50;99.90
24518;DHT22;12678;51.336;12.406;2023-02-01T15:22:19;7.40;99.90
24518;DHT22;12678;51.336;12.406;2023-02-01T15:24:52;7.40;99.90
24518;DHT22;12678;51.336;12.406;2023-02-01T15:27:20;7.30;99.90
24518;DHT22;12678;51.336;12.406;2023-02-01T15:29:46;7.20;99.90
24518;DHT22;12678;51.336;12.406;2023-02-01T15:32:31;7.20;99.90
24518;DHT22;12678;51.336;12.406;2023-02-01T15:34:58;7.10;99.90
24518;DHT22;12678;51.336;12.406;2023-02-01T15:37:26;7.20;99.90
24518;DHT22;12678;51.336;12.406;2023-02-01T15:42:52;7.10;99.90
24518;DHT22;12678;51.336;12.406;2023-02-01T15:45:20;7.00;99.90
24518;DHT22;12678;51.336;12.406;2023-02-01T15:47:50;7.00;99.90
24518;DHT22;12678;51.336;12.406;2023-02-01T15:50:18;6.90;99.90
24518;DHT22;12678;51.336;12.406;2023-02-01T15:52:47;6.90;99.90
24518;DHT22;12678;51.336;12.406;2023-02-01T15:55:39;6.90;99.90
24518;DHT22;12678;51.336;12.406;2023-02-01T15:58:23;7.00;99.90
24518;DHT22;12678;51.336;12.406;2023-02-01T16:00:56;6.90;99.90
24518;DHT22;12678;51.336;12.406;2023-02-01T16:03:43;7.00;99.90
24518;DHT22;12678;51.336;12.406;2023-02-01T16:06:11;7.10;99.90
24518;DHT22;12678;51.336;12.406;2023-02-01T16:08:48;6.90;99.90
24518;DHT22;12678;51.336;12.406;2023-02-01T16:13:51;6.00;99.90
24518;DHT22;12678;51.336;12.406;2023-02-01T16:16:16;5.50;99.90
24518;DHT22;12678;51.336;12.406;2023-02-01T16:18:42;5.00;99.90
24518;DHT22;12678;51.336;12.406;2023-02-01T16:21:09;4.80;99.90
24518;DHT22;12678;51.336;12.406;2023-02-01T16:23:36;4.80;99.90
24518;DHT22;12678;51.336;12.406;2023-02-01T16:26:03;4.70;99.90
24518;DHT22;12678;51.336;12.406;2023-02-01T16:28:29;4.50;99.90
24518;DHT22;12678;51.336;12.406;2023-02-01T16:30:54;4.60;99.90
24518;DHT22;12678;51.336;12.406;2023-02-01T16:33:21;4.50;99.90
24518;DHT22;12678;51.336;12.406;2023-02-01T16:35:50;4.60;99.90
24518;DHT22;12678;51.336;12.406;2023-02-01T16:38:18;4.60;99.90
24518;DHT22;12678;51.336;12.406;2023-02-01T16:40:47;4.50;99.90
24518;DHT22;12678;51.336;12.406;2023-02-01T16:43:23;4.60;99.90
24518;DHT22;12678;51.336;12.406;2023-02-01T16:45:52;4.60;99.90
24518;DHT22;12678;51.336;12.406;2023-02-01T16:48:25;4.60;99.90
24518;DHT22;12678;51.336;12.406;2023-02-01T16:50:54;4.60;99.90
24518;DHT22;12678;51.336;12.406;2023-02-01T16:53:21;4.60;99.90
24518;DHT22;12678;51.336;12.406;2023-02-01T16:55:47;4.70;99.90
24518;DHT22;12678;51.336;12.406;2023-02-01T16:58:15;4.70;99.90
24518;DHT22;12678;51.336;12.406;2023-02-01T17:00:41;4.60;99.90
24518;DHT22;12678;51.336;12.406;2023-02-01T17:03:07;4.70;99.90
24518;DHT22;12678;51.336;12.406;2023-02-01T17:05:33;4.70;99.90
24518;DHT22;12678;51.336;12.406;2023-02-01T17:08:02;4.70;99.90
24518;DHT22;12678;51.336;12.406;2023-02-01T17:10:30;4.70;99.90
24518;DHT22;12678;51.336;12.406;2023-02-01T17:12:56;4.70;99.90
24518;DHT22;12678;51.336;12.406;2023-02-01T17:15:24;4.70;99.90
24518;DHT22;12678;51.336;12.406;2023-02-01T17:17:51;4.60;99.90
24518;DHT22;12678;51.336;12.406;2023-02-01T17:20:23;4.60;99.90
24518;DHT22;12678;51.336;12.406;2023-02-01T17:22:50;4.50;99.90
24518;DHT22;12678;51.336;12.406;2023-02-01T17:25:18;4.50;99.90
24518;DHT22;12678;51.336;12.406;2023-02-01T17:27:44;4.50;99.90
24518;DHT22;12678;51.336;12.406;2023-02-01T17:30:11;4.50;99.90
24518;DHT22;12678;51.336;12.406;2023-02-01T17:32:37;4.40;99.90
24518;DHT22;12678;51.336;12.406;2023-02-01T17:35:05;4.40;99.90
24518;DHT22;12678;51.336;12.406;2023-02-01T17:37:33;4.40;99.90
24518;DHT22;12678;51.336;12.406;2023-02-01T17:40:00;4.40;99.90
24518;DHT22;12678;51.336;12.406;2023-02-01T17:42:28;4.30;99.90
24518;DHT22;12678;51.336;12.406;2023-02-01T17:45:01;4.30;99.90
24518;DHT22;12678;51.336;12.406;2023-02-01T17:47:36;4.20;99.90
24518;DHT22;12678;51.336;12.406;2023-02-01T17:50:03;4.20;99.90
24518;DHT22;12678;51.336;12.406;2023-02-01T17:52:28;4.30;99.90
24518;DHT22;12678;51.336;12.406;2023-02-01T17:54:54;4.20;99.90
24518;DHT22;12678;51.336;12.406;2023-02-01T17:57:20;4.20;99.90
24518;DHT22;12678;51.336;12.406;2023-02-01T17:59:46;4.20;99.90
24518;DHT22;12678;51.336;12.406;2023-02-01T18:04:40;4.10;99.90
24518;DHT22;12678;51.336;12.406;2023-02-01T18:07:07;4.10;99.90
24518;DHT22;12678;51.336;12.406;2023-02-01T18:09:33;4.10;99.90
24518;DHT22;12678;51.336;12.406;2023-02-01T18:11:59;4.10;99.90
24518;DHT22;12678;51.336;12.406;2023-02-01T18:14:24;4.10;99.90
24518;DHT22;12678;51.336;12.406;2023-02-01T18:16:50;4.10;99.90
24518;DHT22;12678;51.336;12.406;2023-02-01T18:19:15;3.90;99.90
24518;DHT22;12678;51.336;12.406;2023-02-01T18:21:42;4.00;99.90
24518;DHT22;12678;51.336;12.406;2023-02-01T18:24:11;4.00;99.90
24518;DHT22;12678;51.336;12.406;2023-02-01T18:26:37;4.00;99.90
24518;DHT22;12678;51.336;12.406;2023-02-01T18:29:03;4.00;99.90